Time;durP1;ratioP1;P1;durP2;ratioP2;P2;SDS_P1;SDS_P2;PMS_P1;PMS_P2;Temp;Humidity;BMP_temperature;BMP_pressure;BME280_temperature;BME280_humidity;BME280_pressure;Samples;Min_cycle;Max_cycle;Signal;HPM_P1;HPM_P2
2021/10/08 00:01:08;;;;;;;17.40;8.23;;;;;;;12.69;62.89;101279.16;6096903;23;20457;-80
2021/10/08 00:03:35;;;;;;;11.63;7.43;;;;;;;12.71;62.14;101279.94;6097048;23;20049;-80
2021/10/08 00:06:02;;;;;;;10.90;7.53;;;;;;;12.70;62.11;101280.00;6096412;23;20025;-80
2021/10/08 00:08:28;;;;;;;11.40;7.72;;;;;;;12.68;62.39;101280.09;6097013;23;20099;-80
2021/10/08 00:10:55;;;;;;;10.07;7.60;;;;;;;12.65;62.33;101282.84;6097155;23;20346;-80
2021/10/08 00:13:26;;;;;;;9.13;6.90;;;;;;;12.62;62.66;101281.19;6096959;23;20030;-80
2021/10/08 00:15:53;;;;;;;8.88;6.45;;;;;;;12.63;62.26;101285.56;6097022;23;20109;-80
2021/10/08 00:18:19;;;;;;;11.32;7.07;;;;;;;12.62;62.41;101289.13;6096355;23;20022;-80
2021/10/08 00:21:03;;;;;;;7.85;5.70;;;;;;;12.57;62.94;101290.22;6096400;23;20091;-80
2021/10/08 00:23:30;;;;;;;9.85;5.80;;;;;;;12.59;62.34;101286.59;6096443;23;20102;-80
2021/10/08 00:25:57;;;;;;;9.02;6.32;;;;;;;12.58;62.21;101284.88;6096498;23;20650;-80
2021/10/08 00:28:24;;;;;;;7.60;6.20;;;;;;;12.58;62.37;101290.19;6097074;23;20460;-80
2021/10/08 00:30:56;;;;;;;11.02;6.80;;;;;;;12.54;62.76;101279.78;6096377;23;20022;-80
2021/10/08 00:33:23;;;;;;;7.57;5.35;;;;;;;12.55;62.43;101285.00;6096481;23;20022;-80
2021/10/08 00:35:50;;;;;;;7.50;5.97;;;;;;;12.54;62.27;101280.66;6098119;23;20026;-80
2021/10/08 00:38:23;;;;;;;7.78;5.68;;;;;;;12.50;62.92;101285.22;6096584;23;20451;-80
2021/10/08 00:40:50;;;;;;;;;;;;;;;12.53;62.62;101288.63;6097173;23;20052;-80
2021/10/08 00:43:29;;;;;;;5.97;4.97;;;;;;;12.52;62.95;101285.13;6096418;23;19924;-80
2021/10/08 00:45:55;;;;;;;7.28;4.38;;;;;;;12.54;62.24;101291.22;6095997;23;20101;-80
2021/10/08 00:48:22;;;;;;;6.10;4.85;;;;;;;12.51;62.30;101283.41;6096172;23;20034;-80
2021/10/08 00:50:59;;;;;;;9.45;5.53;;;;;;;12.46;63.31;101286.25;6096139;23;20023;-80
2021/10/08 00:53:26;;;;;;;6.13;4.78;;;;;;;12.49;62.59;101285.28;6096513;23;20045;-80
2021/10/08 00:55:52;;;;;;;6.80;4.53;;;;;;;12.48;62.53;101288.81;6096315;23;20031;-80
2021/10/08 00:58:25;;;;;;;7.38;4.30;;;;;;;12.44;63.11;101290.72;6096468;23;20029;-80
2021/10/08 01:00:52;;;;;;;11.40;3.58;;;;;;;12.47;62.45;101295.88;6096135;23;20030;-80
2021/10/08 01:03:21;;;;;;;5.25;4.38;;;;;;;12.46;62.80;101293.31;6096771;23;20354;-80
2021/10/08 01:05:49;;;;;;;7.50;4.80;;;;;;;12.46;62.61;101293.31;6096703;23;20033;-80
2021/10/08 01:08:16;;;;;;;8.25;4.45;;;;;;;12.45;62.61;101294.25;6097929;23;20452;-80
2021/10/08 01:11:20;;;;;;;5.32;4.50;;;;;;;12.40;63.09;101288.28;6096017;23;20022;-80
2021/10/08 01:13:48;;;;;;;;;;;;;;;12.45;62.77;101289.78;6096630;23;20022;-80
2021/10/08 01:16:21;;;;;;;4.47;3.33;;;;;;;12.45;62.72;101297.72;6095968;23;19917;-80
2021/10/08 01:18:55;;;;;;;4.28;3.65;;;;;;;12.42;62.78;101289.94;5980993;24;20417;-80
2021/10/08 01:21:21;;;;;;;4.30;3.75;;;;;;;12.43;62.39;101290.78;5958290;24;20032;-80
2021/10/08 01:23:49;;;;;;;4.70;3.72;;;;;;;12.42;62.41;101294.34;5957778;24;20424;-80
2021/10/08 01:26:22;;;;;;;5.47;4.07;;;;;;;12.37;62.99;101305.09;5958040;24;20067;-80
2021/10/08 01:28:48;;;;;;;5.00;3.75;;;;;;;12.38;62.48;101294.47;5958063;24;20353;-80
2021/10/08 01:31:15;;;;;;;4.65;3.45;;;;;;;12.37;62.72;101286.59;5957965;24;20024;-80
2021/10/08 01:33:55;;;;;;;4.13;3.70;;;;;;;12.33;63.25;101285.00;5957692;24;20099;-80
2021/10/08 01:36:23;;;;;;;3.53;3.10;;;;;;;12.34;62.64;101295.50;6010323;23;20022;-80
2021/10/08 01:38:49;;;;;;;4.40;3.17;;;;;;;12.33;62.72;101285.88;6096003;23;20033;-80
2021/10/08 01:41:25;;;;;;;5.30;3.78;;;;;;;12.29;63.29;101294.84;6095860;23;20022;-80
2021/10/08 01:43:52;;;;;;;4.47;3.55;;;;;;;12.32;62.69;101297.38;6095671;23;20022;-80
2021/10/08 01:46:25;;;;;;;4.30;3.25;;;;;;;12.28;62.99;101298.41;6096161;23;20033;-80
2021/10/08 01:48:51;;;;;;;4.95;3.13;;;;;;;12.30;62.59;101301.81;6095877;23;20082;-80
2021/10/08 01:51:18;;;;;;;4.32;3.22;;;;;;;12.28;62.59;101303.69;6095910;23;20030;-80
2021/10/08 01:53:52;;;;;;;3.30;2.95;;;;;;;12.24;63.21;101296.81;6096078;23;20022;-80
2021/10/08 01:56:19;;;;;;;4.07;2.72;;;;;;;12.25;62.55;101293.22;6095880;23;20022;-80
2021/10/08 01:58:46;;;;;;;3.20;2.90;;;;;;;12.25;62.56;101290.59;6096126;23;20026;-80
2021/10/08 02:01:12;;;;;;;8.20;3.10;;;;;;;12.23;62.76;101292.44;6096055;23;20126;-80
2021/10/08 02:03:52;;;;;;;4.40;3.22;;;;;;;12.18;63.48;101291.78;6096251;23;20415;-80
2021/10/08 02:06:19;;;;;;;3.70;2.88;;;;;;;12.21;62.68;101289.88;6096231;23;20450;-80
2021/10/08 02:08:50;;;;;;;5.15;3.15;;;;;;;12.18;63.35;101292.63;6095749;23;20027;-80
2021/10/08 02:11:17;;;;;;;4.78;3.80;;;;;;;12.19;62.83;101290.84;6096303;23;20522;-80
2021/10/08 02:13:46;;;;;;;3.70;3.00;;;;;;;12.16;63.27;101293.59;6095892;23;20022;-80
2021/10/08 02:16:13;;;;;;;2.90;2.60;;;;;;;12.16;62.93;101293.59;6095723;23;20022;-80
2021/10/08 02:18:40;;;;;;;3.25;2.65;;;;;;;12.16;62.98;101288.31;6096958;23;20327;-80
2021/10/08 02:21:07;;;;;;;3.85;2.63;;;;;;;12.15;62.99;101287.44;6097773;23;20029;-80
2021/10/08 02:23:34;;;;;;;4.03;2.63;;;;;;;12.15;63.05;101291.88;6097967;23;20113;-80
2021/10/08 02:26:11;;;;;;;3.90;2.60;;;;;;;12.10;63.61;101297.34;6097857;23;20345;-80
2021/10/08 02:28:38;;;;;;;5.40;2.40;;;;;;;12.13;62.83;101294.59;6097921;23;20022;-80
2021/10/08 02:31:04;;;;;;;4.38;2.33;;;;;;;12.12;62.92;101301.63;6097377;23;20022;-80
2021/10/08 02:33:34;;;;;;;2.65;2.20;;;;;;;12.10;63.15;101303.47;6097549;23;20027;-80
2021/10/08 02:36:05;;;;;;;2.33;2.05;;;;;;;12.10;63.07;101300.84;6097647;23;20023;-80
2021/10/08 02:38:33;;;;;;;3.17;2.40;;;;;;;12.10;63.18;101299.97;6097779;23;20029;-80
2021/10/08 02:41:17;;;;;;;2.80;2.50;;;;;;;12.05;63.70;101307.19;6097084;23;20408;-80
2021/10/08 02:43:43;;;;;;;5.60;2.42;;;;;;;12.08;63.18;101301.81;6096669;23;20023;-80
2021/10/08 02:46:10;;;;;;;2.33;2.13;;;;;;;12.07;63.08;101305.38;6097289;23;20385;-80
2021/10/08 02:48:53;;;;;;;3.35;2.58;;;;;;;12.02;63.65;101302.88;6097483;23;20022;-80
2021/10/08 02:51:19;;;;;;;3.20;2.30;;;;;;;12.05;62.93;101297.53;6097849;23;20105;-80
2021/10/08 02:53:46;;;;;;;2.72;2.40;;;;;;;12.04;63.14;101294.91;6097538;23;20105;-80
2021/10/08 02:56:19;;;;;;;2.00;1.80;;;;;;;12.01;63.39;101293.25;6097829;23;20023;-80
2021/10/08 02:58:46;;;;;;;2.15;1.95;;;;;;;12.03;63.01;101303.75;6097390;23;20041;-80
2021/10/08 03:01:13;;;;;;;2.80;2.00;;;;;;;12.02;63.08;101299.38;6097176;23;20022;-80
2021/10/08 03:03:40;;;;;;;4.13;2.30;;;;;;;12.00;63.34;101296.78;6097762;23;20447;-80
2021/10/08 03:06:07;;;;;;;3.10;2.50;;;;;;;11.99;63.08;101300.34;6097542;23;20341;-80
2021/10/08 03:08:34;;;;;;;3.65;2.50;;;;;;;12.00;63.14;101299.41;6097675;23;20027;-80
2021/10/08 03:11:12;;;;;;;3.42;2.35;;;;;;;11.95;63.81;101306.66;6097477;23;20030;-80
2021/10/08 03:13:39;;;;;;;3.28;2.17;;;;;;;11.98;63.16;101301.28;6097102;23;20018;-80
2021/10/08 03:16:09;;;;;;;3.80;2.45;;;;;;;11.94;63.50;101299.66;6097118;23;20029;-80
2021/10/08 03:18:35;;;;;;;4.95;2.35;;;;;;;11.94;63.25;101300.53;6097331;23;20501;-80
2021/10/08 03:21:02;;;;;;;2.97;2.08;;;;;;;11.93;63.11;101296.16;6096891;23;20026;-80
2021/10/08 03:23:34;;;;;;;2.80;2.22;;;;;;;11.89;63.65;101299.00;6097122;23;20030;-80
2021/10/08 03:26:01;;;;;;;2.75;2.10;;;;;;;11.91;63.18;101303.28;6096901;23;20022;-80
2021/10/08 03:28:30;;;;;;;2.95;2.58;;;;;;;11.88;63.46;101303.41;6097412;23;20025;-80
2021/10/08 03:30:57;;;;;;;2.25;2.03;;;;;;;11.89;63.26;101306.91;6097219;23;20082;-80
2021/10/08 03:33:23;;;;;;;2.80;2.53;;;;;;;11.88;63.41;101302.56;6097382;23;20032;-80
2021/10/08 03:35:51;;;;;;;3.95;2.13;;;;;;;11.87;63.63;101304.31;6097320;23;20033;-80
2021/10/08 03:38:19;;;;;;;4.38;2.40;;;;;;;11.85;63.46;101301.72;6097120;23;20102;-80
2021/10/08 03:41:18;;;;;;;2.67;2.42;;;;;;;11.81;64.20;101289.56;6096925;23;20082;-80
2021/10/08 03:43:54;;;;;;;2.03;1.65;;;;;;;11.82;63.88;101299.19;6098131;23;20026;-80
2021/10/08 03:46:32;;;;;;;2.25;2.05;;;;;;;11.83;63.70;101302.72;6096825;23;20470;-80
2021/10/08 03:49:12;;;;;;;2.00;1.85;;;;;;;11.84;63.25;101302.66;6097547;23;20077;-80
2021/10/08 03:51:56;;;;;;;2.00;1.60;;;;;;;11.83;63.06;101303.59;6097018;23;20508;-80
2021/10/08 03:54:23;;;;;;;2.33;1.90;;;;;;;11.81;63.08;101315.97;6096573;23;20026;-80
2021/10/08 03:56:54;;;;;;;2.67;1.75;;;;;;;11.78;63.84;101312.59;6097174;23;20442;-80
2021/10/08 03:59:21;;;;;;;1.80;1.70;;;;;;;11.78;63.35;101308.16;6096709;23;20031;-80
2021/10/08 04:01:48;;;;;;;2.50;1.73;;;;;;;11.78;63.42;101309.94;6096966;23;20498;-80
2021/10/08 04:04:26;;;;;;;3.13;1.85;;;;;;;11.72;64.05;101314.53;6096583;23;20023;-80
2021/10/08 04:06:52;;;;;;;2.00;1.77;;;;;;;11.75;63.46;101316.19;6096917;23;20026;-80
2021/10/08 04:09:19;;;;;;;1.95;1.77;;;;;;;11.74;63.48;101314.47;6096602;23;20037;-80
2021/10/08 04:12:24;;;;;;;2.60;1.80;;;;;;;11.69;64.25;101312.00;6097015;23;20030;-80
2021/10/08 04:14:51;;;;;;;6.15;1.73;;;;;;;11.75;63.27;101326.75;6096327;23;20018;-80
2021/10/08 04:17:27;;;;;;;3.25;2.00;;;;;;;11.70;63.74;101320.78;6096435;23;20037;-80
2021/10/08 04:19:53;;;;;;;2.53;1.95;;;;;;;11.72;63.38;101326.84;6096842;23;20335;-80
2021/10/08 04:22:20;;;;;;;4.15;1.58;;;;;;;11.70;63.45;101318.16;6096567;23;20029;-80
2021/10/08 04:24:57;;;;;;;3.17;1.95;;;;;;;11.66;64.03;101317.38;6096562;23;20028;-80
2021/10/08 04:27:24;;;;;;;1.83;1.73;;;;;;;11.69;63.56;101321.69;6096347;23;20018;-80
2021/10/08 04:29:50;;;;;;;2.45;1.70;;;;;;;11.69;63.72;101321.69;6096618;23;20029;-80
2021/10/08 04:32:17;;;;;;;3.60;2.17;;;;;;;11.69;63.59;101321.69;6096715;23;20342;-80
2021/10/08 04:34:44;;;;;;;1.73;1.45;;;;;;;11.68;63.48;101318.19;6096400;23;20065;-80
2021/10/08 04:37:13;;;;;;;2.92;2.00;;;;;;;11.67;63.81;101320.88;6096744;23;20473;-80
2021/10/08 04:39:39;;;;;;;1.92;1.70;;;;;;;11.68;63.41;101325.25;6096753;23;20023;-80
2021/10/08 04:42:06;;;;;;;2.25;2.05;;;;;;;11.66;63.54;101317.38;6095877;23;20061;-80
2021/10/08 04:44:36;;;;;;;2.15;1.60;;;;;;;11.64;63.77;101328.91;6096421;23;20026;-80
2021/10/08 04:47:04;;;;;;;2.25;1.77;;;;;;;11.64;63.42;101321.00;6096068;23;20027;-80
2021/10/08 04:49:31;;;;;;;1.90;1.80;;;;;;;11.63;63.56;101316.63;6096458;23;20028;-80
2021/10/08 04:51:58;;;;;;;2.10;1.83;;;;;;;11.62;63.71;101322.84;6096007;23;20059;-80
2021/10/08 04:54:37;;;;;;;3.33;2.10;;;;;;;11.57;64.37;101323.88;6096393;23;20030;-80
2021/10/08 04:57:05;;;;;;;3.38;1.60;;;;;;;11.60;63.81;101329.00;6096155;23;20029;-80
2021/10/08 04:59:32;;;;;;;3.97;2.28;;;;;;;11.60;63.80;101331.66;6096363;23;20454;-80
2021/10/08 05:02:00;;;;;;;3.67;2.03;;;;;;;11.60;63.99;101326.38;6096499;23;20037;-80
2021/10/08 05:04:27;;;;;;;2.53;2.00;;;;;;;11.62;64.00;101336.88;6096352;23;20026;-80
2021/10/08 05:06:55;;;;;;;4.45;2.10;;;;;;;11.60;64.01;101336.91;6097974;23;20346;-80
2021/10/08 05:09:22;;;;;;;2.63;2.25;;;;;;;11.63;64.02;101340.38;6096069;23;20027;-80
2021/10/08 05:11:48;;;;;;;2.38;2.17;;;;;;;11.62;64.16;101342.16;6096690;23;20442;-80
2021/10/08 05:14:15;;;;;;;2.35;2.00;;;;;;;11.62;64.23;101339.50;6095934;23;20023;-80
2021/10/08 05:17:00;;;;;;;2.08;1.88;;;;;;;11.59;65.07;101347.56;6096344;23;20345;-80
2021/10/08 05:19:26;;;;;;;2.45;1.90;;;;;;;11.64;64.19;101342.97;6096524;23;20026;-80
2021/10/08 05:22:08;;;;;;;5.28;2.58;;;;;;;11.60;64.73;101344.81;6095752;23;20027;-80
2021/10/08 05:24:35;;;;;;;4.57;2.40;;;;;;;11.64;64.09;101342.09;6095737;23;20029;-80
2021/10/08 05:27:36;;;;;;;3.80;2.80;;;;;;;11.60;65.11;101350.09;6095925;23;20036;-80
2021/10/08 05:30:05;;;;;;;5.32;3.08;;;;;;;11.65;64.15;101339.41;6096290;23;20027;-80
2021/10/08 05:32:32;;;;;;;3.75;3.20;;;;;;;11.64;64.25;101340.31;6095976;23;20028;-80
2021/10/08 05:35:03;;;;;;;4.63;2.92;;;;;;;11.63;64.70;101348.28;6095732;23;20022;-80
2021/10/08 05:37:30;;;;;;;3.65;3.22;;;;;;;11.64;64.16;101347.38;6095758;23;20022;-80
2021/10/08 05:39:57;;;;;;;7.10;4.15;;;;;;;11.63;64.23;101353.56;6096281;23;20022;-80
2021/10/08 05:42:53;;;;;;;6.28;3.72;;;;;;;11.58;64.79;101354.59;6095918;23;20034;-81
2021/10/08 05:45:35;;;;;;;6.38;4.38;;;;;;;11.58;64.87;101351.94;6095680;23;20026;-82
2021/10/08 05:48:02;;;;;;;5.15;4.25;;;;;;;11.61;64.06;101353.63;6095853;23;20023;-82
2021/10/08 05:50:32;;;;;;;7.05;4.57;;;;;;;11.58;64.41;101353.72;6097848;23;20026;-82
2021/10/08 05:52:59;;;;;;;5.40;4.20;;;;;;;11.58;63.98;101354.59;6096921;23;20028;-82
2021/10/08 05:55:26;;;;;;;6.97;5.43;;;;;;;11.58;64.14;101361.63;6097809;23;20037;-82
2021/10/08 05:58:18;;;;;;;7.13;5.40;;;;;;;11.52;64.82;101357.47;6097836;23;20031;-82
2021/10/08 06:00:44;;;;;;;6.38;5.15;;;;;;;11.56;64.17;101358.19;6098562;23;20037;-81
2021/10/08 06:03:11;;;;;;;6.22;4.90;;;;;;;11.55;64.23;101362.59;6097802;23;20037;-82
2021/10/08 06:08:57;;;;;;;7.00;5.63;;;;;;;11.54;64.25;101363.53;6099717;23;20023;-82
2021/10/08 06:12:01;;;;;;;10.68;6.80;;;;;;;11.49;65.32;101373.38;6098228;23;20030;-82
2021/10/08 06:14:28;;;;;;;8.00;6.00;;;;;;;11.54;64.36;101371.44;6098202;23;20023;-82
2021/10/08 06:16:54;;;;;;;9.40;6.72;;;;;;;11.55;64.40;101372.31;6097928;23;20101;-82
2021/10/08 06:22:46;;;;;;;;;;;;;;;11.55;64.75;101373.16;6100104;23;20338;-82
2021/10/08 06:25:13;;;;;;;9.77;5.55;;;;;;;11.59;64.11;101380.03;6097595;23;20285;-82
2021/10/08 06:28:06;;;;;;;9.25;6.75;;;;;;;11.55;65.09;101382.84;6098187;23;20434;-82
2021/10/08 06:30:33;;;;;;;8.65;6.75;;;;;;;11.58;64.49;101378.31;6098148;23;20311;-82
2021/10/08 06:33:00;;;;;;;9.80;6.93;;;;;;;11.59;64.73;101379.19;6098508;23;20029;-83
2021/10/08 06:35:33;;;;;;;10.93;7.53;;;;;;;11.58;65.39;101380.09;6097451;23;20065;-83
2021/10/08 06:37:59;;;;;;;11.02;7.80;;;;;;;11.63;64.89;101385.22;6097771;23;20022;-82
2021/10/08 06:40:27;;;;;;;9.52;7.00;;;;;;;11.64;65.04;101382.53;6097354;23;20026;-83
2021/10/08 06:43:21;;;;;;;10.60;8.00;;;;;;;11.64;65.85;101386.94;6097819;23;20470;-82
2021/10/08 06:45:53;;;;;;;14.40;9.88;;;;;;;11.68;66.06;101385.91;6097235;23;20019;-83
2021/10/08 06:48:20;;;;;;;12.23;9.30;;;;;;;11.73;65.51;101389.25;6098019;23;20026;-83
2021/10/08 06:50:47;;;;;;;12.70;9.32;;;;;;;11.76;65.45;101391.78;6097676;23;20034;-83
2021/10/08 06:53:13;;;;;;;14.10;10.10;;;;;;;11.79;65.53;101394.31;6097421;23;20023;-83
2021/10/08 06:55:40;;;;;;;12.38;9.38;;;;;;;11.83;65.71;101397.69;6097556;23;20022;-83
2021/10/08 06:58:09;;;;;;;14.23;9.95;;;;;;;11.85;65.98;101396.72;6097646;23;20022;-83
2021/10/08 07:00:35;;;;;;;16.00;9.82;;;;;;;11.90;65.77;101398.34;6097619;23;20354;-83
2021/10/08 07:03:02;;;;;;;13.27;9.88;;;;;;;11.93;65.70;101399.06;6097802;23;20033;-83
2021/10/08 07:08:56;;;;;;;12.60;9.27;;;;;;;12.02;65.71;101405.81;6098649;23;20073;-83
2021/10/08 07:11:23;;;;;;;13.05;9.35;;;;;;;12.04;65.79;101401.31;6097842;23;20346;-83
2021/10/08 07:13:52;;;;;;;14.20;9.98;;;;;;;12.08;65.80;101407.41;6097270;23;20019;-83
2021/10/08 07:16:19;;;;;;;12.80;9.23;;;;;;;12.11;65.82;101399.34;6097283;23;20106;-83
2021/10/08 07:19:38;;;;;;;15.48;10.30;;;;;;;12.11;66.89;101405.50;6097134;23;20041;-83
2021/10/08 07:22:05;;;;;;;12.50;9.32;;;;;;;12.20;65.92;101406.06;6097034;23;20026;-83
2021/10/08 07:24:33;;;;;;;13.18;9.93;;;;;;;12.22;65.89;101401.59;6097184;23;20101;-83
2021/10/08 07:27:21;;;;;;;16.33;10.85;;;;;;;12.20;66.85;101399.03;6097531;23;20319;-83
2021/10/08 07:29:48;;;;;;;20.27;11.20;;;;;;;12.29;66.11;101407.53;6097046;23;20029;-83
2021/10/08 07:32:15;;;;;;;14.90;10.32;;;;;;;12.33;66.37;101411.75;6097249;23;20026;-83
2021/10/08 07:35:06;;;;;;;14.43;11.10;;;;;;;12.32;67.30;101416.19;6097160;23;20391;-82
2021/10/08 07:37:34;;;;;;;14.57;11.55;;;;;;;12.42;66.38;101421.13;6097275;23;20376;-82
2021/10/08 07:40:05;;;;;;;17.10;11.57;;;;;;;12.46;67.25;101420.06;6097627;23;20402;-83
2021/10/08 07:42:34;;;;;;;16.85;11.93;;;;;;;12.53;66.76;101423.34;6096979;23;20030;-83
2021/10/08 07:45:08;;;;;;;13.85;11.00;;;;;;;12.57;67.43;101422.31;6096706;23;20101;-82
2021/10/08 07:47:36;;;;;;;17.13;12.60;;;;;;;12.63;66.74;101417.66;6096884;23;20026;-81
2021/10/08 07:50:04;;;;;;;21.00;13.75;;;;;;;12.68;66.95;101425.41;6097226;23;20022;-82
2021/10/08 07:53:10;;;;;;;23.48;13.13;;;;;;;12.71;67.68;101427.06;6097568;23;20097;-82
2021/10/08 07:55:37;;;;;;;22.67;13.82;;;;;;;12.81;66.65;101425.75;6096978;23;20350;-81
2021/10/08 07:58:15;;;;;;;18.45;12.68;;;;;;;12.82;67.50;101419.56;6096701;23;20023;-82
2021/10/08 08:00:42;;;;;;;20.67;12.68;;;;;;;12.89;66.77;101428.97;6097186;23;20116;-82
2021/10/08 08:03:27;;;;;;;15.60;11.65;;;;;;;12.92;67.43;101421.81;6096688;23;20101;-81
2021/10/08 08:05:54;;;;;;;19.73;12.20;;;;;;;13.00;66.74;101425.03;6096933;23;20366;-82
2021/10/08 08:08:23;;;;;;;17.73;11.80;;;;;;;13.05;66.74;101427.50;6097462;23;20027;-81
2021/10/08 08:10:51;;;;;;;14.82;11.00;;;;;;;13.09;66.81;101437.03;6096614;23;20027;-81
2021/10/08 08:13:43;;;;;;;14.32;11.00;;;;;;;13.08;67.47;101433.50;6096544;23;20030;-82
2021/10/08 08:16:10;;;;;;;16.02;11.13;;;;;;;13.19;66.69;101434.88;6096144;23;20034;-81
2021/10/08 08:18:37;;;;;;;19.58;12.20;;;;;;;13.22;66.80;101427.66;6096469;23;20097;-82
2021/10/08 08:21:26;;;;;;;17.00;11.63;;;;;;;13.24;67.52;101431.09;6096809;23;20097;-81
2021/10/08 08:23:53;;;;;;;17.50;12.15;;;;;;;13.34;66.79;101436.03;6096598;23;20032;-81
2021/10/08 08:26:19;;;;;;;13.38;10.13;;;;;;;13.38;66.86;101432.31;6098323;23;20399;-81
2021/10/08 08:28:46;;;;;;;12.50;9.65;;;;;;;13.43;66.80;101433.00;6096234;23;20029;-81
2021/10/08 08:31:13;;;;;;;13.73;9.45;;;;;;;13.49;66.65;101423.97;6096740;23;20446;-81
2021/10/08 08:33:59;;;;;;;14.30;10.32;;;;;;;13.50;67.16;101437.09;6096646;23;20022;-82
2021/10/08 08:36:30;;;;;;;9.82;8.25;;;;;;;13.60;66.63;101437.59;6096598;23;20026;-81
2021/10/08 08:39:32;;;;;;;10.18;8.63;;;;;;;13.63;67.33;101434.81;6096537;23;20032;-81
2021/10/08 08:41:58;;;;;;;14.15;8.50;;;;;;;13.72;66.66;101435.34;6096314;23;20031;-81
2021/10/08 08:44:40;;;;;;;10.48;8.18;;;;;;;13.74;67.23;101433.47;6095961;23;20097;-81
2021/10/08 08:47:07;;;;;;;10.55;8.07;;;;;;;13.85;66.66;101431.22;6096427;23;20030;-81
2021/10/08 08:49:50;;;;;;;10.50;8.55;;;;;;;13.88;67.33;101431.09;6096663;23;20061;-81
2021/10/08 08:52:18;;;;;;;11.93;8.38;;;;;;;13.99;66.71;101429.75;6096617;23;20105;-81
2021/10/08 08:54:53;;;;;;;10.20;7.53;;;;;;;14.03;66.96;101431.34;6096006;23;20105;-81
2021/10/08 08:57:21;;;;;;;10.77;7.93;;;;;;;14.11;66.49;101425.69;6096516;23;20101;-81
2021/10/08 09:00:09;;;;;;;11.88;7.72;;;;;;;14.14;66.88;101426.44;6096250;23;20073;-81
2021/10/08 09:02:38;;;;;;;9.20;7.03;;;;;;;14.25;66.41;101433.03;6096225;23;20104;-81
2021/10/08 09:05:20;;;;;;;9.30;7.55;;;;;;;14.28;66.99;101436.38;6096355;23;20030;-81
2021/10/08 09:07:47;;;;;;;8.20;6.82;;;;;;;14.37;66.36;101432.47;6096790;23;20093;-82
2021/10/08 09:10:28;;;;;;;9.10;7.45;;;;;;;14.40;66.61;101434.97;6096593;23;20323;-81
2021/10/08 09:12:56;;;;;;;7.95;6.70;;;;;;;14.48;66.00;101431.09;6096605;23;20409;-82
2021/10/08 09:16:04;;;;;;;8.20;7.00;;;;;;;14.50;65.99;101431.91;6096661;23;20022;-81
2021/10/08 09:18:33;;;;;;;8.93;6.80;;;;;;;14.58;65.75;101424.44;6096003;23;20062;-81
2021/10/08 09:21:56;;;;;;;8.50;6.90;;;;;;;14.58;66.15;101427.94;6096472;23;20442;-81
2021/10/08 09:24:23;;;;;;;8.07;6.32;;;;;;;14.68;65.56;101433.69;6096437;23;20025;-81
2021/10/08 09:30:15;;;;;;;8.18;6.28;;;;;;;14.78;65.74;101434.13;6097429;23;20106;-81
2021/10/08 09:33:14;;;;;;;8.50;7.03;;;;;;;14.79;66.08;101433.19;6095977;23;20030;-81
2021/10/08 09:35:42;;;;;;;9.10;6.93;;;;;;;14.90;66.01;101429.16;6096050;23;20018;-81
2021/10/08 09:38:18;;;;;;;8.35;6.40;;;;;;;14.93;66.14;101429.00;6096303;23;20450;-81
2021/10/08 09:40:50;;;;;;;8.00;6.45;;;;;;;15.03;65.92;101429.44;6096520;23;20026;-81
2021/10/08 09:43:53;;;;;;;8.93;6.28;;;;;;;15.08;66.02;101430.06;6096383;23;20044;-81
2021/10/08 09:46:30;;;;;;;8.50;6.93;;;;;;;15.17;66.04;101431.41;6095836;23;20097;-81
2021/10/08 09:48:57;;;;;;;9.35;6.93;;;;;;;15.28;66.01;101429.06;6096165;23;20036;-81
2021/10/08 09:51:34;;;;;;;9.38;7.38;;;;;;;15.32;66.01;101429.75;6095870;23;20069;-82
2021/10/08 09:54:01;;;;;;;7.68;6.25;;;;;;;15.43;65.84;101423.91;6095575;23;20029;-81
2021/10/08 09:56:37;;;;;;;6.47;5.78;;;;;;;15.49;65.90;101432.44;6096367;23;20038;-81
2021/10/08 09:59:10;;;;;;;7.82;6.10;;;;;;;15.59;65.49;101421.34;6096282;23;20077;-82
2021/10/08 10:01:45;;;;;;;7.40;6.18;;;;;;;15.67;65.17;101424.47;6096007;23;20102;-82
2021/10/08 10:04:12;;;;;;;7.63;6.45;;;;;;;15.77;65.59;101424.84;6096026;23;20442;-82
2021/10/08 10:06:54;;;;;;;6.72;6.03;;;;;;;15.83;65.45;101421.00;6096164;23;20097;-81
2021/10/08 10:09:21;;;;;;;10.25;6.15;;;;;;;15.96;65.59;101424.75;6095865;23;20023;-82
2021/10/08 10:11:54;;;;;;;8.68;5.72;;;;;;;16.04;65.53;101420.84;6095857;23;20026;-82
2021/10/08 10:14:25;;;;;;;7.85;6.22;;;;;;;16.17;65.57;101427.22;6096021;23;20382;-82
2021/10/08 10:16:58;;;;;;;9.15;6.18;;;;;;;16.26;65.09;101426.72;6096152;23;20402;-82
2021/10/08 10:19:25;;;;;;;;;;;;;;;16.38;65.23;101422.50;6096210;23;20018;-82
2021/10/08 10:22:18;;;;;;;8.07;5.63;;;;;;;16.53;65.02;101426.13;6096287;23;19917;-82
2021/10/08 10:24:47;;;;;;;7.90;5.93;;;;;;;16.70;64.70;101420.84;6095546;23;20101;-82
2021/10/08 10:27:17;;;;;;;8.68;6.07;;;;;;;16.81;64.09;101421.06;6095861;23;20032;-82
2021/10/08 10:29:46;;;;;;;6.95;5.70;;;;;;;16.93;63.83;101420.38;6096183;23;20398;-82
2021/10/08 10:32:52;;;;;;;7.57;5.88;;;;;;;17.04;63.76;101421.53;6095750;23;20097;-82
2021/10/08 10:35:51;;;;;;;7.20;5.80;;;;;;;17.19;64.18;101420.69;6095952;23;20093;-82
2021/10/08 10:38:26;;;;;;;8.63;5.90;;;;;;;17.37;63.67;101419.69;6096084;23;20097;-82
2021/10/08 10:41:39;;;;;;;9.50;5.13;;;;;;;17.50;63.09;101412.72;6097152;23;20027;-82
2021/10/08 10:44:16;;;;;;;6.93;4.97;;;;;;;17.69;62.75;101419.59;6097198;23;20019;-82
2021/10/08 10:46:53;;;;;;;6.30;5.00;;;;;;;17.86;62.62;101421.22;6097373;23;20058;-82
2021/10/08 10:49:53;;;;;;;5.47;4.32;;;;;;;18.02;62.61;101420.28;6099008;23;20021;-82
2021/10/08 10:52:23;;;;;;;5.82;4.40;;;;;;;18.16;62.78;101416.78;6097454;23;20105;-82
2021/10/08 10:54:54;;;;;;;8.50;4.85;;;;;;;18.27;61.35;101422.28;6097896;23;20423;-82
2021/10/08 10:57:22;;;;;;;7.43;3.90;;;;;;;18.44;61.96;101420.38;6097875;23;20113;-82
2021/10/08 10:59:49;;;;;;;8.82;4.72;;;;;;;18.57;61.53;101409.75;6098131;23;20445;-82
2021/10/08 11:02:33;;;;;;;6.35;4.20;;;;;;;18.68;60.56;101409.06;6097441;23;20109;-82
2021/10/08 11:05:23;;;;;;;5.90;3.30;;;;;;;18.89;60.57;101402.31;6098521;23;20105;-82
2021/10/08 11:08:12;;;;;;;3.80;3.10;;;;;;;19.18;60.46;101417.41;6097376;23;20110;-82
2021/10/08 11:17:57;;;;;;;3.63;2.60;;;;;;;21.15;60.48;101409.00;6099057;23;20102;-82
2021/10/08 11:20:31;;;;;;;6.47;2.50;;;;;;;21.93;60.01;101403.94;6097184;23;20042;-82
2021/10/08 11:23:37;;;;;;;2.60;2.22;;;;;;;22.77;58.71;101393.72;6097130;23;20105;-82
2021/10/08 11:26:09;;;;;;;3.10;1.80;;;;;;;23.65;57.99;101403.38;6097006;23;20061;-83
2021/10/08 11:28:38;;;;;;;3.03;2.17;;;;;;;24.36;55.68;101401.72;6097575;23;20031;-83
2021/10/08 11:31:18;;;;;;;2.50;2.03;;;;;;;25.06;52.92;101402.66;6097022;23;20023;-83
2021/10/08 11:33:47;;;;;;;3.85;2.00;;;;;;;25.71;52.77;101393.91;6096891;23;20026;-83
2021/10/08 11:36:19;;;;;;;6.13;2.42;;;;;;;26.31;49.47;101399.06;6096804;23;20018;-83
2021/10/08 11:38:48;;;;;;;3.53;2.40;;;;;;;26.82;49.81;101385.03;6097287;23;20045;-83
2021/10/08 11:41:30;;;;;;;3.10;1.80;;;;;;;27.27;47.19;101383.22;6096920;23;20101;-83
2021/10/08 11:44:30;;;;;;;2.72;1.85;;;;;;;27.73;46.10;101387.59;6096696;23;20030;-83
2021/10/08 11:52:55;;;;;;;3.45;1.52;;;;;;;29.03;42.91;101383.69;6098203;23;20113;-83
2021/10/08 11:55:40;;;;;;;2.53;1.65;;;;;;;29.27;43.26;101385.53;6096836;23;20022;-83
2021/10/08 11:58:10;;;;;;;2.13;1.48;;;;;;;29.58;42.17;101380.41;6097085;23;20353;-83
2021/10/08 12:00:48;;;;;;;2.78;1.80;;;;;;;29.76;41.56;101382.91;6096554;23;20022;-83
2021/10/08 12:03:19;;;;;;;3.30;1.70;;;;;;;29.97;39.27;101374.16;6097096;23;20054;-83
2021/10/08 12:09:19;;;;;;;;;;;;;;;30.46;45.29;101376.81;6098315;23;20022;-83
2021/10/08 12:15:10;;;;;;;2.03;1.60;;;;;;;30.98;39.72;101360.81;6097620;23;20014;-83
2021/10/08 12:17:52;;;;;;;2.72;1.60;;;;;;;31.09;39.09;101365.78;6096780;23;20026;-83
2021/10/08 12:20:21;;;;;;;3.40;1.88;;;;;;;31.32;38.03;101359.47;6097209;23;20029;-83
2021/10/08 12:26:07;;;;;;;2.17;1.58;;;;;;;31.74;37.11;101362.56;6098128;23;20034;-83
2021/10/08 12:28:34;;;;;;;2.63;1.90;;;;;;;31.88;36.43;101352.69;6096933;23;20030;-83